sensor_id;sensor_type;location;lat;lon;timestamp;P1;durP1;ratioP1;P2;durP2;ratioP2
71387;SDS011;59201;59.902;10.520;2022-08-19T00:02:24;12.40;;;5.60;;
71387;SDS011;59201;59.902;10.520;2022-08-19T00:04:50;16.25;;;6.32;;
71387;SDS011;59201;59.902;10.520;2022-08-19T00:07:20;17.13;;;7.07;;
71387;SDS011;59201;59.902;10.520;2022-08-19T00:09:46;16.92;;;7.15;;
71387;SDS011;59201;59.902;10.520;2022-08-19T00:12:13;21.30;;;7.53;;
71387;SDS011;59201;59.902;10.520;2022-08-19T00:14:39;20.07;;;7.53;;
71387;SDS011;59201;59.902;10.520;2022-08-19T00:17:06;16.83;;;6.18;;
71387;SDS011;59201;59.902;10.520;2022-08-19T00:19:33;13.73;;;6.63;;
71387;SDS011;59201;59.902;10.520;2022-08-19T00:21:59;16.25;;;6.20;;
71387;SDS011;59201;59.902;10.520;2022-08-19T00:24:25;17.58;;;6.40;;
71387;SDS011;59201;59.902;10.520;2022-08-19T00:26:52;13.07;;;5.83;;
71387;SDS011;59201;59.902;10.520;2022-08-19T00:29:19;15.45;;;6.07;;
71387;SDS011;59201;59.902;10.520;2022-08-19T00:31:45;13.63;;;5.60;;
71387;SDS011;59201;59.902;10.520;2022-08-19T00:34:12;15.65;;;5.60;;
71387;SDS011;59201;59.902;10.520;2022-08-19T00:36:39;12.55;;;5.50;;
71387;SDS011;59201;59.902;10.520;2022-08-19T00:39:05;12.13;;;5.80;;
71387;SDS011;59201;59.902;10.520;2022-08-19T00:41:31;13.00;;;5.82;;
71387;SDS011;59201;59.902;10.520;2022-08-19T00:46:24;13.18;;;5.97;;
71387;SDS011;59201;59.902;10.520;2022-08-19T00:48:50;15.27;;;6.32;;
71387;SDS011;59201;59.902;10.520;2022-08-19T00:51:16;16.33;;;5.97;;
71387;SDS011;59201;59.902;10.520;2022-08-19T00:53:42;13.85;;;5.68;;
71387;SDS011;59201;59.902;10.520;2022-08-19T00:56:08;17.58;;;5.97;;
71387;SDS011;59201;59.902;10.520;2022-08-19T00:58:34;17.20;;;6.95;;
71387;SDS011;59201;59.902;10.520;2022-08-19T01:01:01;11.88;;;6.03;;
71387;SDS011;59201;59.902;10.520;2022-08-19T01:03:28;14.13;;;5.80;;
71387;SDS011;59201;59.902;10.520;2022-08-19T01:05:54;14.68;;;6.72;;
71387;SDS011;59201;59.902;10.520;2022-08-19T01:08:20;15.73;;;5.93;;
71387;SDS011;59201;59.902;10.520;2022-08-19T01:10:48;14.90;;;5.90;;
71387;SDS011;59201;59.902;10.520;2022-08-19T01:13:15;14.20;;;6.15;;
71387;SDS011;59201;59.902;10.520;2022-08-19T01:15:50;14.93;;;7.10;;
71387;SDS011;59201;59.902;10.520;2022-08-19T01:18:18;14.25;;;6.07;;
71387;SDS011;59201;59.902;10.520;2022-08-19T01:20:44;13.10;;;6.18;;
71387;SDS011;59201;59.902;10.520;2022-08-19T01:23:11;12.52;;;6.30;;
71387;SDS011;59201;59.902;10.520;2022-08-19T01:28:07;13.17;;;6.03;;
71387;SDS011;59201;59.902;10.520;2022-08-19T01:30:34;12.43;;;6.18;;
71387;SDS011;59201;59.902;10.520;2022-08-19T01:33:01;13.93;;;6.20;;
71387;SDS011;59201;59.902;10.520;2022-08-19T01:35:30;12.75;;;5.85;;
71387;SDS011;59201;59.902;10.520;2022-08-19T01:38:00;10.75;;;6.00;;
71387;SDS011;59201;59.902;10.520;2022-08-19T01:40:29;14.17;;;5.90;;
71387;SDS011;59201;59.902;10.520;2022-08-19T01:42:55;13.63;;;5.88;;
71387;SDS011;59201;59.902;10.520;2022-08-19T01:45:22;13.85;;;6.35;;
71387;SDS011;59201;59.902;10.520;2022-08-19T01:47:48;12.20;;;5.95;;
71387;SDS011;59201;59.902;10.520;2022-08-19T01:50:15;11.38;;;6.38;;
71387;SDS011;59201;59.902;10.520;2022-08-19T01:52:42;13.07;;;5.93;;
71387;SDS011;59201;59.902;10.520;2022-08-19T01:55:10;10.52;;;5.25;;
71387;SDS011;59201;59.902;10.520;2022-08-19T01:57:37;10.77;;;5.32;;
71387;SDS011;59201;59.902;10.520;2022-08-19T02:00:06;10.80;;;5.88;;
71387;SDS011;59201;59.902;10.520;2022-08-19T02:02:32;12.75;;;5.20;;
71387;SDS011;59201;59.902;10.520;2022-08-19T02:04:58;11.30;;;5.00;;
71387;SDS011;59201;59.902;10.520;2022-08-19T02:07:25;11.25;;;5.53;;
71387;SDS011;59201;59.902;10.520;2022-08-19T02:09:53;10.15;;;4.97;;
71387;SDS011;59201;59.902;10.520;2022-08-19T02:12:20;11.52;;;5.63;;
71387;SDS011;59201;59.902;10.520;2022-08-19T02:14:46;15.20;;;6.40;;
71387;SDS011;59201;59.902;10.520;2022-08-19T02:17:13;14.73;;;5.77;;
71387;SDS011;59201;59.902;10.520;2022-08-19T02:19:39;12.05;;;5.63;;
71387;SDS011;59201;59.902;10.520;2022-08-19T02:22:05;11.77;;;5.63;;
71387;SDS011;59201;59.902;10.520;2022-08-19T02:24:31;11.02;;;5.55;;
71387;SDS011;59201;59.902;10.520;2022-08-19T02:26:58;11.13;;;6.25;;
71387;SDS011;59201;59.902;10.520;2022-08-19T02:29:24;11.50;;;5.33;;
71387;SDS011;59201;59.902;10.520;2022-08-19T02:31:50;12.20;;;5.70;;
71387;SDS011;59201;59.902;10.520;2022-08-19T02:34:16;10.93;;;5.38;;
71387;SDS011;59201;59.902;10.520;2022-08-19T02:36:42;10.23;;;5.30;;
71387;SDS011;59201;59.902;10.520;2022-08-19T02:39:09;10.13;;;5.10;;
71387;SDS011;59201;59.902;10.520;2022-08-19T02:41:35;11.47;;;5.40;;
71387;SDS011;59201;59.902;10.520;2022-08-19T02:44:02;10.63;;;5.55;;
71387;SDS011;59201;59.902;10.520;2022-08-19T02:46:31;11.25;;;5.70;;
71387;SDS011;59201;59.902;10.520;2022-08-19T02:48:59;9.77;;;4.70;;
71387;SDS011;59201;59.902;10.520;2022-08-19T02:51:28;10.10;;;5.05;;
71387;SDS011;59201;59.902;10.520;2022-08-19T02:53:54;12.13;;;5.17;;
71387;SDS011;59201;59.902;10.520;2022-08-19T02:56:20;9.32;;;4.75;;
71387;SDS011;59201;59.902;10.520;2022-08-19T02:58:47;10.35;;;5.05;;
71387;SDS011;59201;59.902;10.520;2022-08-19T03:01:23;10.98;;;5.28;;
71387;SDS011;59201;59.902;10.520;2022-08-19T03:03:50;11.68;;;4.88;;
71387;SDS011;59201;59.902;10.520;2022-08-19T03:06:16;10.73;;;5.07;;
71387;SDS011;59201;59.902;10.520;2022-08-19T03:08:43;9.52;;;4.78;;
71387;SDS011;59201;59.902;10.520;2022-08-19T03:11:13;9.50;;;4.25;;
71387;SDS011;59201;59.902;10.520;2022-08-19T03:13:39;10.07;;;4.40;;
71387;SDS011;59201;59.902;10.520;2022-08-19T03:16:06;10.23;;;4.40;;
71387;SDS011;59201;59.902;10.520;2022-08-19T03:18:32;10.60;;;4.83;;
71387;SDS011;59201;59.902;10.520;2022-08-19T03:20:58;11.13;;;4.97;;
71387;SDS011;59201;59.902;10.520;2022-08-19T03:23:24;8.90;;;4.10;;
71387;SDS011;59201;59.902;10.520;2022-08-19T03:25:51;8.98;;;4.40;;
71387;SDS011;59201;59.902;10.520;2022-08-19T03:28:18;9.23;;;4.20;;
71387;SDS011;59201;59.902;10.520;2022-08-19T03:31:06;9.13;;;4.20;;
71387;SDS011;59201;59.902;10.520;2022-08-19T03:33:35;8.77;;;4.20;;
71387;SDS011;59201;59.902;10.520;2022-08-19T03:38:27;8.63;;;3.75;;
71387;SDS011;59201;59.902;10.520;2022-08-19T03:40:53;10.80;;;4.20;;
71387;SDS011;59201;59.902;10.520;2022-08-19T03:43:19;8.97;;;4.03;;
71387;SDS011;59201;59.902;10.520;2022-08-19T03:45:46;8.55;;;4.10;;
71387;SDS011;59201;59.902;10.520;2022-08-19T03:48:13;9.02;;;4.40;;
71387;SDS011;59201;59.902;10.520;2022-08-19T03:50:41;8.65;;;4.20;;
71387;SDS011;59201;59.902;10.520;2022-08-19T03:53:07;10.68;;;4.68;;
71387;SDS011;59201;59.902;10.520;2022-08-19T03:55:38;9.80;;;5.10;;
71387;SDS011;59201;59.902;10.520;2022-08-19T03:58:04;12.52;;;5.13;;
71387;SDS011;59201;59.902;10.520;2022-08-19T04:00:31;9.43;;;4.55;;
71387;SDS011;59201;59.902;10.520;2022-08-19T04:02:58;9.73;;;5.18;;
71387;SDS011;59201;59.902;10.520;2022-08-19T04:05:26;11.82;;;5.05;;
71387;SDS011;59201;59.902;10.520;2022-08-19T04:07:53;9.80;;;5.20;;
71387;SDS011;59201;59.902;10.520;2022-08-19T04:10:23;15.23;;;6.03;;
71387;SDS011;59201;59.902;10.520;2022-08-19T04:12:49;10.63;;;5.15;;
71387;SDS011;59201;59.902;10.520;2022-08-19T04:15:15;9.20;;;5.20;;
71387;SDS011;59201;59.902;10.520;2022-08-19T04:17:42;9.50;;;4.80;;
71387;SDS011;59201;59.902;10.520;2022-08-19T04:20:08;12.03;;;4.77;;
71387;SDS011;59201;59.902;10.520;2022-08-19T04:22:34;9.65;;;4.65;;
71387;SDS011;59201;59.902;10.520;2022-08-19T04:25:01;10.02;;;5.22;;
71387;SDS011;59201;59.902;10.520;2022-08-19T04:27:27;10.32;;;4.68;;
71387;SDS011;59201;59.902;10.520;2022-08-19T04:29:54;9.63;;;4.55;;
71387;SDS011;59201;59.902;10.520;2022-08-19T04:32:20;8.77;;;4.40;;
71387;SDS011;59201;59.902;10.520;2022-08-19T04:34:47;8.65;;;4.07;;
71387;SDS011;59201;59.902;10.520;2022-08-19T04:37:13;9.30;;;3.95;;
71387;SDS011;59201;59.902;10.520;2022-08-19T04:39:39;8.80;;;3.65;;
71387;SDS011;59201;59.902;10.520;2022-08-19T04:42:24;9.68;;;3.60;;
71387;SDS011;59201;59.902;10.520;2022-08-19T04:45:05;8.30;;;3.63;;
71387;SDS011;59201;59.902;10.520;2022-08-19T04:47:32;8.88;;;3.55;;
71387;SDS011;59201;59.902;10.520;2022-08-19T04:49:58;7.65;;;3.55;;
71387;SDS011;59201;59.902;10.520;2022-08-19T04:52:24;9.65;;;4.30;;
71387;SDS011;59201;59.902;10.520;2022-08-19T04:54:50;8.15;;;4.13;;
71387;SDS011;59201;59.902;10.520;2022-08-19T04:57:16;10.20;;;3.90;;
71387;SDS011;59201;59.902;10.520;2022-08-19T04:59:43;9.02;;;3.70;;
71387;SDS011;59201;59.902;10.520;2022-08-19T05:02:09;9.70;;;3.55;;
71387;SDS011;59201;59.902;10.520;2022-08-19T05:04:36;9.00;;;3.42;;
71387;SDS011;59201;59.902;10.520;2022-08-19T05:07:04;8.10;;;3.67;;
71387;SDS011;59201;59.902;10.520;2022-08-19T05:09:30;8.70;;;3.83;;
71387;SDS011;59201;59.902;10.520;2022-08-19T05:11:56;9.50;;;3.88;;
71387;SDS011;59201;59.902;10.520;2022-08-19T05:14:22;9.90;;;4.00;;
71387;SDS011;59201;59.902;10.520;2022-08-19T05:16:48;9.02;;;4.43;;
71387;SDS011;59201;59.902;10.520;2022-08-19T05:19:14;9.02;;;4.00;;
71387;SDS011;59201;59.902;10.520;2022-08-19T05:21:59;8.60;;;3.80;;
71387;SDS011;59201;59.902;10.520;2022-08-19T05:24:44;8.10;;;4.07;;
71387;SDS011;59201;59.902;10.520;2022-08-19T05:27:10;8.57;;;3.95;;
71387;SDS011;59201;59.902;10.520;2022-08-19T05:29:36;8.10;;;3.90;;
71387;SDS011;59201;59.902;10.520;2022-08-19T05:32:03;8.55;;;3.78;;
71387;SDS011;59201;59.902;10.520;2022-08-19T05:34:30;10.73;;;3.70;;
71387;SDS011;59201;59.902;10.520;2022-08-19T05:36:58;7.50;;;3.47;;
71387;SDS011;59201;59.902;10.520;2022-08-19T05:39:26;7.95;;;3.92;;
71387;SDS011;59201;59.902;10.520;2022-08-19T05:41:55;10.10;;;3.78;;
71387;SDS011;59201;59.902;10.520;2022-08-19T05:44:25;8.65;;;3.83;;
71387;SDS011;59201;59.902;10.520;2022-08-19T05:46:52;8.53;;;3.93;;
71387;SDS011;59201;59.902;10.520;2022-08-19T05:49:19;8.43;;;3.35;;
71387;SDS011;59201;59.902;10.520;2022-08-19T05:51:46;8.18;;;3.42;;
71387;SDS011;59201;59.902;10.520;2022-08-19T05:54:12;8.35;;;2.80;;
71387;SDS011;59201;59.902;10.520;2022-08-19T05:56:39;9.63;;;2.53;;
71387;SDS011;59201;59.902;10.520;2022-08-19T05:59:06;7.00;;;2.77;;
71387;SDS011;59201;59.902;10.520;2022-08-19T06:01:34;6.45;;;2.55;;
71387;SDS011;59201;59.902;10.520;2022-08-19T06:04:01;9.13;;;2.72;;
71387;SDS011;59201;59.902;10.520;2022-08-19T06:06:27;7.25;;;3.03;;
71387;SDS011;59201;59.902;10.520;2022-08-19T06:08:54;7.07;;;2.40;;
71387;SDS011;59201;59.902;10.520;2022-08-19T06:11:21;7.60;;;2.50;;
71387;SDS011;59201;59.902;10.520;2022-08-19T06:13:48;10.02;;;2.30;;
71387;SDS011;59201;59.902;10.520;2022-08-19T06:16:18;8.95;;;2.28;;
71387;SDS011;59201;59.902;10.520;2022-08-19T06:18:47;9.23;;;2.90;;
71387;SDS011;59201;59.902;10.520;2022-08-19T06:21:13;9.75;;;2.28;;
71387;SDS011;59201;59.902;10.520;2022-08-19T06:23:39;7.90;;;2.27;;
71387;SDS011;59201;59.902;10.520;2022-08-19T06:26:05;7.88;;;2.70;;
71387;SDS011;59201;59.902;10.520;2022-08-19T06:28:32;8.65;;;2.42;;
71387;SDS011;59201;59.902;10.520;2022-08-19T06:30:59;10.30;;;2.38;;
71387;SDS011;59201;59.902;10.520;2022-08-19T06:33:25;7.05;;;2.10;;
71387;SDS011;59201;59.902;10.520;2022-08-19T06:35:51;8.90;;;2.10;;
71387;SDS011;59201;59.902;10.520;2022-08-19T06:38:17;7.00;;;2.00;;
71387;SDS011;59201;59.902;10.520;2022-08-19T06:40:44;7.18;;;1.90;;
71387;SDS011;59201;59.902;10.520;2022-08-19T06:43:10;12.07;;;2.28;;
71387;SDS011;59201;59.902;10.520;2022-08-19T06:45:37;9.57;;;2.50;;
71387;SDS011;59201;59.902;10.520;2022-08-19T06:48:03;7.07;;;2.13;;
71387;SDS011;59201;59.902;10.520;2022-08-19T06:50:29;8.05;;;1.90;;
71387;SDS011;59201;59.902;10.520;2022-08-19T06:52:55;6.95;;;2.25;;
71387;SDS011;59201;59.902;10.520;2022-08-19T06:55:21;10.48;;;2.00;;
71387;SDS011;59201;59.902;10.520;2022-08-19T06:57:47;7.50;;;1.95;;
71387;SDS011;59201;59.902;10.520;2022-08-19T07:00:18;7.93;;;2.30;;
71387;SDS011;59201;59.902;10.520;2022-08-19T07:02:44;8.18;;;2.15;;
71387;SDS011;59201;59.902;10.520;2022-08-19T07:05:10;5.93;;;1.85;;
71387;SDS011;59201;59.902;10.520;2022-08-19T07:07:36;8.57;;;2.50;;
71387;SDS011;59201;59.902;10.520;2022-08-19T07:10:03;8.43;;;2.08;;
71387;SDS011;59201;59.902;10.520;2022-08-19T07:12:30;9.57;;;2.13;;
71387;SDS011;59201;59.902;10.520;2022-08-19T07:14:58;7.13;;;1.85;;
71387;SDS011;59201;59.902;10.520;2022-08-19T07:17:25;6.53;;;2.03;;
71387;SDS011;59201;59.902;10.520;2022-08-19T07:19:51;8.20;;;2.00;;
71387;SDS011;59201;59.902;10.520;2022-08-19T07:22:17;7.38;;;1.90;;
71387;SDS011;59201;59.902;10.520;2022-08-19T07:24:45;6.23;;;1.87;;
71387;SDS011;59201;59.902;10.520;2022-08-19T07:27:13;7.47;;;2.15;;
71387;SDS011;59201;59.902;10.520;2022-08-19T07:29:39;8.43;;;1.75;;
71387;SDS011;59201;59.902;10.520;2022-08-19T07:32:05;8.98;;;1.77;;
71387;SDS011;59201;59.902;10.520;2022-08-19T07:34:31;10.10;;;1.85;;
71387;SDS011;59201;59.902;10.520;2022-08-19T07:37:02;7.77;;;1.90;;
71387;SDS011;59201;59.902;10.520;2022-08-19T07:39:29;6.85;;;1.88;;
71387;SDS011;59201;59.902;10.520;2022-08-19T07:41:56;6.45;;;1.70;;
71387;SDS011;59201;59.902;10.520;2022-08-19T07:44:23;8.57;;;1.50;;
71387;SDS011;59201;59.902;10.520;2022-08-19T07:46:51;6.30;;;1.70;;
71387;SDS011;59201;59.902;10.520;2022-08-19T07:49:18;6.50;;;1.53;;
71387;SDS011;59201;59.902;10.520;2022-08-19T07:51:46;11.35;;;1.90;;
71387;SDS011;59201;59.902;10.520;2022-08-19T07:54:13;7.38;;;1.58;;
71387;SDS011;59201;59.902;10.520;2022-08-19T07:56:39;6.57;;;1.40;;
71387;SDS011;59201;59.902;10.520;2022-08-19T07:59:05;6.95;;;1.90;;
71387;SDS011;59201;59.902;10.520;2022-08-19T08:01:32;7.70;;;1.90;;
71387;SDS011;59201;59.902;10.520;2022-08-19T08:03:58;6.88;;;1.92;;
71387;SDS011;59201;59.902;10.520;2022-08-19T08:06:43;6.72;;;2.00;;
71387;SDS011;59201;59.902;10.520;2022-08-19T08:09:30;8.73;;;2.03;;
71387;SDS011;59201;59.902;10.520;2022-08-19T08:11:58;7.00;;;1.75;;
71387;SDS011;59201;59.902;10.520;2022-08-19T08:14:27;6.67;;;1.63;;
71387;SDS011;59201;59.902;10.520;2022-08-19T08:16:53;7.80;;;2.10;;
71387;SDS011;59201;59.902;10.520;2022-08-19T08:19:20;7.60;;;2.05;;
71387;SDS011;59201;59.902;10.520;2022-08-19T08:21:47;5.65;;;1.80;;
71387;SDS011;59201;59.902;10.520;2022-08-19T08:24:14;6.90;;;1.73;;
71387;SDS011;59201;59.902;10.520;2022-08-19T08:26:40;6.37;;;1.90;;
71387;SDS011;59201;59.902;10.520;2022-08-19T08:29:08;7.22;;;1.83;;
71387;SDS011;59201;59.902;10.520;2022-08-19T08:31:36;5.90;;;1.80;;
71387;SDS011;59201;59.902;10.520;2022-08-19T08:34:02;6.68;;;1.90;;
71387;SDS011;59201;59.902;10.520;2022-08-19T08:36:29;6.43;;;1.90;;
71387;SDS011;59201;59.902;10.520;2022-08-19T08:38:59;6.90;;;2.03;;
71387;SDS011;59201;59.902;10.520;2022-08-19T08:41:28;6.55;;;1.75;;
71387;SDS011;59201;59.902;10.520;2022-08-19T08:43:57;7.85;;;1.70;;
71387;SDS011;59201;59.902;10.520;2022-08-19T08:46:34;5.25;;;1.50;;
71387;SDS011;59201;59.902;10.520;2022-08-19T08:51:43;7.40;;;2.23;;
71387;SDS011;59201;59.902;10.520;2022-08-19T08:54:10;11.45;;;2.20;;
71387;SDS011;59201;59.902;10.520;2022-08-19T08:56:41;5.28;;;1.65;;
71387;SDS011;59201;59.902;10.520;2022-08-19T08:59:10;7.20;;;1.90;;
71387;SDS011;59201;59.902;10.520;2022-08-19T09:01:38;5.60;;;1.70;;
71387;SDS011;59201;59.902;10.520;2022-08-19T09:04:05;9.67;;;1.83;;
71387;SDS011;59201;59.902;10.520;2022-08-19T09:12:00;5.68;;;1.65;;
71387;SDS011;59201;59.902;10.520;2022-08-19T09:17:07;9.23;;;2.13;;
71387;SDS011;59201;59.902;10.520;2022-08-19T09:19:55;5.45;;;1.75;;
71387;SDS011;59201;59.902;10.520;2022-08-19T09:22:20;7.63;;;2.20;;
71387;SDS011;59201;59.902;10.520;2022-08-19T09:24:48;5.53;;;1.58;;
71387;SDS011;59201;59.902;10.520;2022-08-19T09:27:15;9.15;;;1.70;;
71387;SDS011;59201;59.902;10.520;2022-08-19T09:29:41;8.40;;;2.40;;
71387;SDS011;59201;59.902;10.520;2022-08-19T09:32:08;4.80;;;1.70;;
71387;SDS011;59201;59.902;10.520;2022-08-19T09:34:34;8.95;;;2.00;;
71387;SDS011;59201;59.902;10.520;2022-08-19T09:37:00;6.05;;;1.90;;
71387;SDS011;59201;59.902;10.520;2022-08-19T09:39:26;6.78;;;1.88;;
71387;SDS011;59201;59.902;10.520;2022-08-19T09:41:52;6.20;;;2.20;;
71387;SDS011;59201;59.902;10.520;2022-08-19T09:44:18;6.97;;;2.08;;
71387;SDS011;59201;59.902;10.520;2022-08-19T09:46:47;6.72;;;1.90;;
71387;SDS011;59201;59.902;10.520;2022-08-19T09:49:13;7.20;;;1.80;;
71387;SDS011;59201;59.902;10.520;2022-08-19T09:51:40;8.65;;;1.95;;
71387;SDS011;59201;59.902;10.520;2022-08-19T09:54:06;7.60;;;2.00;;
71387;SDS011;59201;59.902;10.520;2022-08-19T09:56:32;5.80;;;2.00;;
71387;SDS011;59201;59.902;10.520;2022-08-19T09:58:59;7.10;;;1.77;;
71387;SDS011;59201;59.902;10.520;2022-08-19T10:01:26;7.13;;;1.88;;
71387;SDS011;59201;59.902;10.520;2022-08-19T10:03:54;6.18;;;1.67;;
71387;SDS011;59201;59.902;10.520;2022-08-19T10:06:22;8.90;;;2.60;;
71387;SDS011;59201;59.902;10.520;2022-08-19T10:08:48;7.75;;;2.97;;
71387;SDS011;59201;59.902;10.520;2022-08-19T10:11:16;7.70;;;1.80;;
71387;SDS011;59201;59.902;10.520;2022-08-19T10:13:43;7.63;;;1.70;;
71387;SDS011;59201;59.902;10.520;2022-08-19T10:16:13;7.05;;;1.80;;
71387;SDS011;59201;59.902;10.520;2022-08-19T10:18:40;8.17;;;2.10;;
71387;SDS011;59201;59.902;10.520;2022-08-19T10:21:14;7.10;;;1.90;;
71387;SDS011;59201;59.902;10.520;2022-08-19T10:23:41;5.30;;;1.85;;
71387;SDS011;59201;59.902;10.520;2022-08-19T10:26:10;5.75;;;1.60;;
71387;SDS011;59201;59.902;10.520;2022-08-19T10:28:37;6.78;;;1.80;;
71387;SDS011;59201;59.902;10.520;2022-08-19T10:31:04;6.73;;;1.60;;
71387;SDS011;59201;59.902;10.520;2022-08-19T10:33:31;6.57;;;1.90;;
71387;SDS011;59201;59.902;10.520;2022-08-19T10:36:01;5.10;;;1.60;;
71387;SDS011;59201;59.902;10.520;2022-08-19T10:38:28;5.82;;;1.70;;
71387;SDS011;59201;59.902;10.520;2022-08-19T10:40:54;6.00;;;1.40;;
71387;SDS011;59201;59.902;10.520;2022-08-19T10:43:20;5.90;;;1.80;;
71387;SDS011;59201;59.902;10.520;2022-08-19T10:45:53;5.68;;;1.60;;
71387;SDS011;59201;59.902;10.520;2022-08-19T10:48:23;5.55;;;1.60;;
71387;SDS011;59201;59.902;10.520;2022-08-19T10:50:49;5.50;;;1.60;;
71387;SDS011;59201;59.902;10.520;2022-08-19T10:53:34;7.25;;;1.70;;
71387;SDS011;59201;59.902;10.520;2022-08-19T10:56:00;5.90;;;1.53;;
71387;SDS011;59201;59.902;10.520;2022-08-19T10:58:44;8.02;;;1.80;;
71387;SDS011;59201;59.902;10.520;2022-08-19T11:01:10;7.88;;;1.60;;
71387;SDS011;59201;59.902;10.520;2022-08-19T11:03:36;6.38;;;2.00;;
71387;SDS011;59201;59.902;10.520;2022-08-19T11:06:04;6.72;;;2.00;;
71387;SDS011;59201;59.902;10.520;2022-08-19T11:08:30;6.77;;;1.90;;
71387;SDS011;59201;59.902;10.520;2022-08-19T11:10:59;7.00;;;1.88;;
71387;SDS011;59201;59.902;10.520;2022-08-19T11:13:29;5.70;;;1.63;;
71387;SDS011;59201;59.902;10.520;2022-08-19T11:15:57;5.97;;;1.60;;
71387;SDS011;59201;59.902;10.520;2022-08-19T11:18:23;6.95;;;1.60;;
71387;SDS011;59201;59.902;10.520;2022-08-19T11:20:49;7.50;;;1.60;;
71387;SDS011;59201;59.902;10.520;2022-08-19T11:23:15;6.50;;;1.92;;
71387;SDS011;59201;59.902;10.520;2022-08-19T11:25:41;6.85;;;1.70;;
71387;SDS011;59201;59.902;10.520;2022-08-19T11:28:07;9.30;;;1.83;;
71387;SDS011;59201;59.902;10.520;2022-08-19T11:30:34;6.97;;;1.52;;
71387;SDS011;59201;59.902;10.520;2022-08-19T11:33:00;7.93;;;1.67;;
71387;SDS011;59201;59.902;10.520;2022-08-19T11:35:27;6.45;;;1.73;;
71387;SDS011;59201;59.902;10.520;2022-08-19T11:37:53;5.45;;;1.70;;
71387;SDS011;59201;59.902;10.520;2022-08-19T11:40:21;5.63;;;1.60;;
71387;SDS011;59201;59.902;10.520;2022-08-19T11:42:47;5.47;;;1.60;;
71387;SDS011;59201;59.902;10.520;2022-08-19T11:45:25;5.80;;;1.70;;
71387;SDS011;59201;59.902;10.520;2022-08-19T11:47:53;5.60;;;1.60;;
71387;SDS011;59201;59.902;10.520;2022-08-19T11:50:19;7.18;;;1.65;;
71387;SDS011;59201;59.902;10.520;2022-08-19T11:52:46;7.25;;;1.63;;
71387;SDS011;59201;59.902;10.520;2022-08-19T11:55:15;6.97;;;1.40;;
71387;SDS011;59201;59.902;10.520;2022-08-19T11:57:41;5.47;;;1.70;;
71387;SDS011;59201;59.902;10.520;2022-08-19T16:55:18;4.72;;;1.50;;
71387;SDS011;59201;59.902;10.520;2022-08-19T17:21:33;5.00;;;1.60;;
71387;SDS011;59201;59.902;10.520;2022-08-19T17:54:31;6.22;;;1.40;;
71387;SDS011;59201;59.902;10.520;2022-08-19T18:14:21;11.07;;;2.97;;
71387;SDS011;59201;59.902;10.520;2022-08-19T20:12:36;7.97;;;2.20;;
71387;SDS011;59201;59.902;10.520;2022-08-19T21:04:49;7.45;;;2.40;;
71387;SDS011;59201;59.902;10.520;2022-08-19T22:42:10;6.60;;;2.20;;
